Gloria d'Oeste, Brazil
Current Conditions -  °F | °C
As of 3:00 PM on Thursday 30 Oct 2014 (Local Time) from SBCY Reporting Station
Scattered Clouds Scattered Clouds  
Wind Chill: 93°   Ceiling: Unl
Heat Index: 97°   Visibility: 6mi
Dew Point: 68°   Wind: 13mph
Humidity: 44%   Direction: 300°WNW
Pressure: 29.74"   Gusts: NA
Location:  15.77°S, 58.22°W
Report Text: SBCY 301800Z 30011KT 9999 SCT020 FEW025TCU 34/20 Q1007
Loading
Personal Weather Stations






























Interactive Weather Map
Tropical Storm Tracking
New forecast layout! Learn more

10-Day Weather Forecast

Advertisements
Track Severe Weather on mobile